sensor_id;sensor_type;location;lat;lon;timestamp;pressure;altitude;pressure_sealevel;temperature;humidity
75424;BME280;64005;55.160;36.002;2024-02-15T00:02:23;100185.09;;;-9.07;76.48
75424;BME280;64005;55.160;36.002;2024-02-15T00:04:51;100173.66;;;-9.09;76.57
75424;BME280;64005;55.160;36.002;2024-02-15T00:07:41;100185.66;;;-9.11;76.42
75424;BME280;64005;55.160;36.002;2024-02-15T00:10:09;100187.13;;;-9.09;76.56
75424;BME280;64005;55.160;36.002;2024-02-15T00:12:37;100189.81;;;-9.09;76.64
75424;BME280;64005;55.160;36.002;2024-02-15T00:15:06;100185.09;;;-9.07;76.59
75424;BME280;64005;55.160;36.002;2024-02-15T00:17:34;100182.41;;;-9.07;76.56
75424;BME280;64005;55.160;36.002;2024-02-15T00:20:02;100178.88;;;-9.07;76.61
75424;BME280;64005;55.160;36.002;2024-02-15T00:22:35;100182.41;;;-9.07;76.62
75424;BME280;64005;55.160;36.002;2024-02-15T00:25:03;100177.19;;;-9.08;76.72
75424;BME280;64005;55.160;36.002;2024-02-15T00:27:31;100183.59;;;-9.09;76.66
75424;BME280;64005;55.160;36.002;2024-02-15T00:30:01;100185.81;;;-9.13;76.32
75424;BME280;64005;55.160;36.002;2024-02-15T00:32:31;100182.13;;;-9.12;76.65
75424;BME280;64005;55.160;36.002;2024-02-15T00:34:58;100186.50;;;-9.11;76.65
75424;BME280;64005;55.160;36.002;2024-02-15T00:37:26;100190.84;;;-9.10;76.38
75424;BME280;64005;55.160;36.002;2024-02-15T00:39:53;100185.44;;;-9.10;76.53
75424;BME280;64005;55.160;36.002;2024-02-15T00:42:20;100195.03;;;-9.07;76.65
75424;BME280;64005;55.160;36.002;2024-02-15T00:44:47;100192.53;;;-9.09;76.58
75424;BME280;64005;55.160;36.002;2024-02-15T00:47:15;100204.97;;;-9.08;76.55
75424;BME280;64005;55.160;36.002;2024-02-15T00:49:45;100194.19;;;-9.08;76.50
75424;BME280;64005;55.160;36.002;2024-02-15T00:52:13;100203.69;;;-9.12;76.68
75424;BME280;64005;55.160;36.002;2024-02-15T00:54:40;100200.13;;;-9.12;76.68
75424;BME280;64005;55.160;36.002;2024-02-15T00:57:07;100196.44;;;-9.11;76.74
75424;BME280;64005;55.160;36.002;2024-02-15T00:59:35;100197.28;;;-9.11;76.60
75424;BME280;64005;55.160;36.002;2024-02-15T01:02:02;100202.66;;;-9.11;76.60
75424;BME280;64005;55.160;36.002;2024-02-15T01:04:31;100198.94;;;-9.10;76.61
75424;BME280;64005;55.160;36.002;2024-02-15T01:06:59;100203.28;;;-9.09;76.64
75424;BME280;64005;55.160;36.002;2024-02-15T01:09:27;100206.66;;;-9.07;76.50
75424;BME280;64005;55.160;36.002;2024-02-15T01:11:54;100205.81;;;-9.07;76.64
75424;BME280;64005;55.160;36.002;2024-02-15T01:14:22;100203.97;;;-9.07;76.64
75424;BME280;64005;55.160;36.002;2024-02-15T01:16:49;100210.19;;;-9.06;76.42
75424;BME280;64005;55.160;36.002;2024-02-15T01:19:16;100207.84;;;-9.09;76.56
75424;BME280;64005;55.160;36.002;2024-02-15T01:21:43;100196.06;;;-9.08;76.57
75424;BME280;64005;55.160;36.002;2024-02-15T01:24:13;100197.06;;;-9.09;76.67
75424;BME280;64005;55.160;36.002;2024-02-15T01:26:41;100194.56;;;-9.11;76.50
75424;BME280;64005;55.160;36.002;2024-02-15T01:29:08;100200.78;;;-9.10;76.38
75424;BME280;64005;55.160;36.002;2024-02-15T01:31:37;100198.09;;;-9.10;76.57
75424;BME280;64005;55.160;36.002;2024-02-15T01:34:05;100203.28;;;-9.09;76.63
75424;BME280;64005;55.160;36.002;2024-02-15T01:36:32;100190.84;;;-9.10;76.67
75424;BME280;64005;55.160;36.002;2024-02-15T01:39:00;100195.03;;;-9.07;76.61
75424;BME280;64005;55.160;36.002;2024-02-15T01:41:28;100191.50;;;-9.08;76.61
75424;BME280;64005;55.160;36.002;2024-02-15T01:43:55;100190.00;;;-9.10;76.59
75424;BME280;64005;55.160;36.002;2024-02-15T01:46:22;100191.69;;;-9.09;76.61
75424;BME280;64005;55.160;36.002;2024-02-15T01:48:51;100190.84;;;-9.10;76.60
75424;BME280;64005;55.160;36.002;2024-02-15T01:51:18;100185.66;;;-9.11;76.70
75424;BME280;64005;55.160;36.002;2024-02-15T01:53:45;100188.16;;;-9.10;76.58
75424;BME280;64005;55.160;36.002;2024-02-15T01:56:14;100179.31;;;-9.18;76.60
75424;BME280;64005;55.160;36.002;2024-02-15T01:58:43;100186.50;;;-9.11;76.53
75424;BME280;64005;55.160;36.002;2024-02-15T02:01:12;100181.75;;;-9.09;76.61
75424;BME280;64005;55.160;36.002;2024-02-15T02:03:41;100182.75;;;-9.10;76.56
75424;BME280;64005;55.160;36.002;2024-02-15T02:06:09;100171.13;;;-9.10;76.54
75424;BME280;64005;55.160;36.002;2024-02-15T02:08:36;100175.88;;;-9.12;76.34
75424;BME280;64005;55.160;36.002;2024-02-15T02:11:03;100186.84;;;-9.14;76.60
75424;BME280;64005;55.160;36.002;2024-02-15T02:13:31;100178.94;;;-9.15;76.71
75424;BME280;64005;55.160;36.002;2024-02-15T02:16:00;100185.16;;;-9.15;76.58
75424;BME280;64005;55.160;36.002;2024-02-15T02:18:27;100186.84;;;-9.14;76.62
75424;BME280;64005;55.160;36.002;2024-02-15T02:20:54;100194.09;;;-9.14;76.57
75424;BME280;64005;55.160;36.002;2024-02-15T02:23:26;100191.56;;;-9.16;76.55
75424;BME280;64005;55.160;36.002;2024-02-15T02:25:55;100193.63;;;-9.18;76.92
75424;BME280;64005;55.160;36.002;2024-02-15T02:28:22;100187.56;;;-9.20;76.59
75424;BME280;64005;55.160;36.002;2024-02-15T02:30:50;100188.56;;;-9.21;76.66
75424;BME280;64005;55.160;36.002;2024-02-15T02:33:17;100185.22;;;-9.23;76.54
75424;BME280;64005;55.160;36.002;2024-02-15T02:35:45;100187.75;;;-9.21;76.59
75424;BME280;64005;55.160;36.002;2024-02-15T02:38:14;100190.59;;;-9.23;76.62
75424;BME280;64005;55.160;36.002;2024-02-15T02:40:41;100189.13;;;-9.26;76.46
75424;BME280;64005;55.160;36.002;2024-02-15T02:43:10;100188.28;;;-9.26;76.59
75424;BME280;64005;55.160;36.002;2024-02-15T02:45:38;100189.47;;;-9.29;76.65
75424;BME280;64005;55.160;36.002;2024-02-15T02:48:05;100190.47;;;-9.30;76.57
75424;BME280;64005;55.160;36.002;2024-02-15T02:50:33;100193.84;;;-9.28;76.73
75424;BME280;64005;55.160;36.002;2024-02-15T02:53:00;100193.69;;;-9.26;76.72
75424;BME280;64005;55.160;36.002;2024-02-15T02:55:27;100200.91;;;-9.27;76.63
75424;BME280;64005;55.160;36.002;2024-02-15T02:57:55;100189.66;;;-9.30;76.60
75424;BME280;64005;55.160;36.002;2024-02-15T03:00:24;100197.94;;;-9.32;76.66
75424;BME280;64005;55.160;36.002;2024-02-15T03:02:53;100195.41;;;-9.33;76.48
75424;BME280;64005;55.160;36.002;2024-02-15T03:05:22;100209.06;;;-9.35;76.54
75424;BME280;64005;55.160;36.002;2024-02-15T03:07:49;100195.75;;;-9.36;76.71
75424;BME280;64005;55.160;36.002;2024-02-15T03:10:17;100201.13;;;-9.36;76.72
75424;BME280;64005;55.160;36.002;2024-02-15T03:12:44;100203.00;;;-9.37;76.48
75424;BME280;64005;55.160;36.002;2024-02-15T03:15:13;100202.16;;;-9.37;76.51
75424;BME280;64005;55.160;36.002;2024-02-15T03:17:43;100200.69;;;-9.40;76.44
75424;BME280;64005;55.160;36.002;2024-02-15T03:20:11;100216.16;;;-9.42;76.69
75424;BME280;64005;55.160;36.002;2024-02-15T03:22:51;100212.47;;;-9.41;76.57
75424;BME280;64005;55.160;36.002;2024-02-15T03:25:18;100217.00;;;-9.41;76.51
75424;BME280;64005;55.160;36.002;2024-02-15T03:27:45;100214.69;;;-9.44;76.77
75424;BME280;64005;55.160;36.002;2024-02-15T03:30:12;100216.34;;;-9.43;76.61
75424;BME280;64005;55.160;36.002;2024-02-15T03:32:39;100222.56;;;-9.43;76.53
75424;BME280;64005;55.160;36.002;2024-02-15T03:35:09;100216.72;;;-9.46;76.38
75424;BME280;64005;55.160;36.002;2024-02-15T03:37:39;100210.94;;;-9.43;76.53
75424;BME280;64005;55.160;36.002;2024-02-15T03:40:08;100216.34;;;-9.43;76.51
75424;BME280;64005;55.160;36.002;2024-02-15T03:42:35;100210.81;;;-9.50;76.58
75424;BME280;64005;55.160;36.002;2024-02-15T03:45:03;100202.56;;;-9.48;76.35
75424;BME280;64005;55.160;36.002;2024-02-15T03:47:32;100220.25;;;-9.46;76.36
75424;BME280;64005;55.160;36.002;2024-02-15T03:50:01;100208.63;;;-9.46;76.72
75424;BME280;64005;55.160;36.002;2024-02-15T03:52:32;100210.31;;;-9.45;76.38
75424;BME280;64005;55.160;36.002;2024-02-15T03:54:59;100222.09;;;-9.46;76.60
75424;BME280;64005;55.160;36.002;2024-02-15T03:57:29;100218.56;;;-9.47;76.65
75424;BME280;64005;55.160;36.002;2024-02-15T03:59:56;100232.88;;;-9.46;76.57
75424;BME280;64005;55.160;36.002;2024-02-15T04:02:24;100237.41;;;-9.47;76.49
75424;BME280;64005;55.160;36.002;2024-02-15T04:04:53;100236.09;;;-9.51;76.44
75424;BME280;64005;55.160;36.002;2024-02-15T04:07:22;100235.44;;;-9.53;76.61
75424;BME280;64005;55.160;36.002;2024-02-15T04:09:52;100242.50;;;-9.52;76.35
75424;BME280;64005;55.160;36.002;2024-02-15T04:12:20;100241.81;;;-9.54;76.60
75424;BME280;64005;55.160;36.002;2024-02-15T04:14:47;100246.22;;;-9.53;76.55
75424;BME280;64005;55.160;36.002;2024-02-15T04:17:14;100250.75;;;-9.53;76.42
75424;BME280;64005;55.160;36.002;2024-02-15T04:19:44;100257.16;;;-9.54;76.65
75424;BME280;64005;55.160;36.002;2024-02-15T04:22:12;100249.91;;;-9.54;76.52
75424;BME280;64005;55.160;36.002;2024-02-15T04:24:42;100256.13;;;-9.53;76.74
75424;BME280;64005;55.160;36.002;2024-02-15T04:27:12;100256.97;;;-9.53;76.57
75424;BME280;64005;55.160;36.002;2024-02-15T04:29:39;100265.06;;;-9.53;76.62
75424;BME280;64005;55.160;36.002;2024-02-15T04:32:08;100264.69;;;-9.50;76.64
75424;BME280;64005;55.160;36.002;2024-02-15T04:34:36;100270.06;;;-9.50;76.54
75424;BME280;64005;55.160;36.002;2024-02-15T04:37:03;100279.84;;;-9.49;76.69
75424;BME280;64005;55.160;36.002;2024-02-15T04:39:33;100273.81;;;-9.51;76.73
75424;BME280;64005;55.160;36.002;2024-02-15T04:42:02;100280.00;;;-9.50;76.80
75424;BME280;64005;55.160;36.002;2024-02-15T04:44:33;100277.97;;;-9.48;76.74
75424;BME280;64005;55.160;36.002;2024-02-15T04:47:01;100279.00;;;-9.49;76.63
75424;BME280;64005;55.160;36.002;2024-02-15T04:49:29;100285.22;;;-9.49;76.68
75424;BME280;64005;55.160;36.002;2024-02-15T04:51:56;100282.34;;;-9.47;76.63
75424;BME280;64005;55.160;36.002;2024-02-15T04:54:24;100287.56;;;-9.46;77.05
75424;BME280;64005;55.160;36.002;2024-02-15T04:56:51;100282.34;;;-9.47;76.78
75424;BME280;64005;55.160;36.002;2024-02-15T04:59:20;100281.19;;;-9.45;76.60
75424;BME280;64005;55.160;36.002;2024-02-15T05:01:53;100291.75;;;-9.43;76.84
75424;BME280;64005;55.160;36.002;2024-02-15T05:04:22;100285.72;;;-9.45;76.73
75424;BME280;64005;55.160;36.002;2024-02-15T05:06:50;100289.91;;;-9.43;76.76
75424;BME280;64005;55.160;36.002;2024-02-15T05:09:18;100283.34;;;-9.40;76.79
75424;BME280;64005;55.160;36.002;2024-02-15T05:11:45;100286.69;;;-9.38;76.88
75424;BME280;64005;55.160;36.002;2024-02-15T05:14:13;100287.03;;;-9.41;76.82
75424;BME280;64005;55.160;36.002;2024-02-15T05:16:45;100296.63;;;-9.39;76.81
75424;BME280;64005;55.160;36.002;2024-02-15T05:19:15;100294.78;;;-9.38;76.81
75424;BME280;64005;55.160;36.002;2024-02-15T05:21:42;100290.41;;;-9.39;76.80
75424;BME280;64005;55.160;36.002;2024-02-15T05:24:12;100298.31;;;-9.38;76.60
75424;BME280;64005;55.160;36.002;2024-02-15T05:26:40;100295.63;;;-9.38;76.65
75424;BME280;64005;55.160;36.002;2024-02-15T05:29:08;100288.56;;;-9.39;76.71
75424;BME280;64005;55.160;36.002;2024-02-15T05:31:36;100299.31;;;-9.39;76.78
75424;BME280;64005;55.160;36.002;2024-02-15T05:34:06;100306.41;;;-9.38;76.79
75424;BME280;64005;55.160;36.002;2024-02-15T05:36:38;100310.56;;;-9.35;76.83
75424;BME280;64005;55.160;36.002;2024-02-15T05:39:05;100319.16;;;-9.32;76.98
75424;BME280;64005;55.160;36.002;2024-02-15T05:41:34;100322.50;;;-9.30;76.94
75424;BME280;64005;55.160;36.002;2024-02-15T05:44:02;100328.56;;;-9.28;76.97
75424;BME280;64005;55.160;36.002;2024-02-15T05:46:32;100327.72;;;-9.28;76.96
75424;BME280;64005;55.160;36.002;2024-02-15T05:49:02;100328.56;;;-9.28;76.87
75424;BME280;64005;55.160;36.002;2024-02-15T05:51:30;100343.53;;;-9.25;76.85
75424;BME280;64005;55.160;36.002;2024-02-15T05:53:59;100345.22;;;-9.24;76.86
75424;BME280;64005;55.160;36.002;2024-02-15T05:56:26;100331.75;;;-9.24;76.88
75424;BME280;64005;55.160;36.002;2024-02-15T05:58:54;100335.25;;;-9.24;76.97
75424;BME280;64005;55.160;36.002;2024-02-15T06:01:22;100325.31;;;-9.23;76.84
75424;BME280;64005;55.160;36.002;2024-02-15T06:03:49;100324.81;;;-9.18;77.02
75424;BME280;64005;55.160;36.002;2024-02-15T06:06:20;100333.75;;;-9.18;76.97
75424;BME280;64005;55.160;36.002;2024-02-15T06:08:47;100340.16;;;-9.19;77.01
75424;BME280;64005;55.160;36.002;2024-02-15T06:11:19;100330.22;;;-9.18;77.01
75424;BME280;64005;55.160;36.002;2024-02-15T06:13:46;100337.06;;;-9.16;77.01
75424;BME280;64005;55.160;36.002;2024-02-15T06:16:14;100337.44;;;-9.19;77.02
75424;BME280;64005;55.160;36.002;2024-02-15T06:18:41;100342.16;;;-9.21;76.98
75424;BME280;64005;55.160;36.002;2024-02-15T06:21:08;100339.97;;;-9.17;77.06
75424;BME280;64005;55.160;36.002;2024-02-15T06:23:35;100340.78;;;-9.17;77.11
75424;BME280;64005;55.160;36.002;2024-02-15T06:26:03;100350.22;;;-9.13;77.09
75424;BME280;64005;55.160;36.002;2024-02-15T06:28:32;100346.13;;;-9.09;77.23
75424;BME280;64005;55.160;36.002;2024-02-15T06:31:16;100348.84;;;-9.09;77.10
75424;BME280;64005;55.160;36.002;2024-02-15T06:34:01;100347.66;;;-9.06;77.08
75424;BME280;64005;55.160;36.002;2024-02-15T06:36:46;100352.19;;;-9.07;77.03
75424;BME280;64005;55.160;36.002;2024-02-15T06:39:28;100358.06;;;-9.03;77.10
75424;BME280;64005;55.160;36.002;2024-02-15T06:42:11;100358.91;;;-9.03;77.08
75424;BME280;64005;55.160;36.002;2024-02-15T06:44:42;100356.03;;;-9.01;77.21
75424;BME280;64005;55.160;36.002;2024-02-15T06:47:10;100351.50;;;-9.01;77.15
75424;BME280;64005;55.160;36.002;2024-02-15T06:49:37;100350.31;;;-8.98;77.25
75424;BME280;64005;55.160;36.002;2024-02-15T06:52:06;100360.72;;;-8.95;77.23
75424;BME280;64005;55.160;36.002;2024-02-15T06:54:34;100365.94;;;-8.94;77.30
75424;BME280;64005;55.160;36.002;2024-02-15T06:57:02;100361.38;;;-8.93;76.98
75424;BME280;64005;55.160;36.002;2024-02-15T06:59:32;100362.22;;;-8.93;77.19
75424;BME280;64005;55.160;36.002;2024-02-15T07:02:01;100355.81;;;-8.92;77.18
75424;BME280;64005;55.160;36.002;2024-02-15T07:04:30;100365.56;;;-8.91;77.18
75424;BME280;64005;55.160;36.002;2024-02-15T07:06:58;100361.00;;;-8.90;77.28
75424;BME280;64005;55.160;36.002;2024-02-15T07:09:27;100359.00;;;-8.88;77.28
75424;BME280;64005;55.160;36.002;2024-02-15T07:11:54;100361.69;;;-8.88;77.14
75424;BME280;64005;55.160;36.002;2024-02-15T07:14:21;100364.03;;;-8.85;77.34
75424;BME280;64005;55.160;36.002;2024-02-15T07:16:49;100376.13;;;-8.81;77.31
75424;BME280;64005;55.160;36.002;2024-02-15T07:19:18;100373.28;;;-8.79;77.49
75424;BME280;64005;55.160;36.002;2024-02-15T07:21:46;100367.50;;;-8.76;77.45
75424;BME280;64005;55.160;36.002;2024-02-15T07:24:13;100378.97;;;-8.74;77.42
75424;BME280;64005;55.160;36.002;2024-02-15T07:26:40;100377.56;;;-8.70;77.57
75424;BME280;64005;55.160;36.002;2024-02-15T07:29:07;100367.97;;;-8.65;77.42
75424;BME280;64005;55.160;36.002;2024-02-15T07:31:35;100369.09;;;-8.59;77.67
75424;BME280;64005;55.160;36.002;2024-02-15T07:34:02;100375.44;;;-8.52;77.56
75424;BME280;64005;55.160;36.002;2024-02-15T07:36:32;100367.53;;;-8.54;77.75
75424;BME280;64005;55.160;36.002;2024-02-15T07:38:59;100367.66;;;-8.47;77.69
75424;BME280;64005;55.160;36.002;2024-02-15T07:41:28;100369.78;;;-8.43;77.80
75424;BME280;64005;55.160;36.002;2024-02-15T07:43:56;100371.47;;;-8.41;77.60
75424;BME280;64005;55.160;36.002;2024-02-15T07:46:24;100378.19;;;-8.37;77.72
75424;BME280;64005;55.160;36.002;2024-02-15T07:48:51;100379.94;;;-8.30;77.65
75424;BME280;64005;55.160;36.002;2024-02-15T07:51:19;100381.47;;;-8.27;77.95
75424;BME280;64005;55.160;36.002;2024-02-15T07:53:48;100380.56;;;-8.20;78.07
75424;BME280;64005;55.160;36.002;2024-02-15T07:56:16;100387.44;;;-8.17;77.90
75424;BME280;64005;55.160;36.002;2024-02-15T07:58:45;100377.31;;;-8.15;77.69
75424;BME280;64005;55.160;36.002;2024-02-15T08:01:13;100389.13;;;-8.16;77.84
75424;BME280;64005;55.160;36.002;2024-02-15T08:03:42;100390.97;;;-8.17;77.73
75424;BME280;64005;55.160;36.002;2024-02-15T08:06:10;100390.97;;;-8.17;77.31
75424;BME280;64005;55.160;36.002;2024-02-15T08:08:38;100386.78;;;-8.19;77.44
75424;BME280;64005;55.160;36.002;2024-02-15T08:11:08;100393.75;;;-8.25;77.61
75424;BME280;64005;55.160;36.002;2024-02-15T08:13:43;100392.44;;;-8.29;77.45
75424;BME280;64005;55.160;36.002;2024-02-15T08:16:10;100396.81;;;-8.28;77.37
75424;BME280;64005;55.160;36.002;2024-02-15T08:18:38;100401.38;;;-8.28;77.53
75424;BME280;64005;55.160;36.002;2024-02-15T08:21:05;100402.03;;;-8.26;77.59
75424;BME280;64005;55.160;36.002;2024-02-15T08:23:32;100396.09;;;-8.22;77.66
75424;BME280;64005;55.160;36.002;2024-02-15T08:25:59;100382.59;;;-8.22;77.30
75424;BME280;64005;55.160;36.002;2024-02-15T08:28:28;100384.81;;;-8.25;77.18
75424;BME280;64005;55.160;36.002;2024-02-15T08:30:55;100391.41;;;-8.28;77.57
75424;BME280;64005;55.160;36.002;2024-02-15T08:33:23;100390.41;;;-8.27;77.41
75424;BME280;64005;55.160;36.002;2024-02-15T08:35:50;100385.66;;;-8.25;77.52
75424;BME280;64005;55.160;36.002;2024-02-15T08:38:21;100402.22;;;-8.28;77.40
75424;BME280;64005;55.160;36.002;2024-02-15T08:40:48;100393.44;;;-8.30;77.65
75424;BME280;64005;55.160;36.002;2024-02-15T08:43:15;100392.84;;;-8.32;77.46
75424;BME280;64005;55.160;36.002;2024-02-15T08:45:43;100389.94;;;-8.30;77.34
75424;BME280;64005;55.160;36.002;2024-02-15T08:48:11;100397.66;;;-8.27;77.39
75424;BME280;64005;55.160;36.002;2024-02-15T08:50:38;100402.88;;;-8.26;77.31
75424;BME280;64005;55.160;36.002;2024-02-15T08:53:07;100400.81;;;-8.24;77.40
75424;BME280;64005;55.160;36.002;2024-02-15T08:55:34;100405.88;;;-8.21;77.52
75424;BME280;64005;55.160;36.002;2024-02-15T08:58:02;100408.84;;;-8.16;77.44
75424;BME280;64005;55.160;36.002;2024-02-15T09:00:30;100415.59;;;-8.12;77.81
75424;BME280;64005;55.160;36.002;2024-02-15T09:02:58;100408.50;;;-8.13;77.68
75424;BME280;64005;55.160;36.002;2024-02-15T09:05:25;100394.50;;;-8.16;77.58
75424;BME280;64005;55.160;36.002;2024-02-15T09:07:53;100410.91;;;-8.18;77.49
75424;BME280;64005;55.160;36.002;2024-02-15T09:10:20;100409.88;;;-8.17;77.53
75424;BME280;64005;55.160;36.002;2024-02-15T09:12:49;100400.94;;;-8.17;77.38
75424;BME280;64005;55.160;36.002;2024-02-15T09:15:16;100413.06;;;-8.13;77.42
75424;BME280;64005;55.160;36.002;2024-02-15T09:17:44;100411.72;;;-8.17;77.53
75424;BME280;64005;55.160;36.002;2024-02-15T09:20:14;100413.22;;;-8.15;77.55
75424;BME280;64005;55.160;36.002;2024-02-15T09:22:47;100416.22;;;-8.10;77.54
75424;BME280;64005;55.160;36.002;2024-02-15T09:25:14;100414.19;;;-8.08;77.57
75424;BME280;64005;55.160;36.002;2024-02-15T09:27:42;100422.28;;;-8.08;77.24
75424;BME280;64005;55.160;36.002;2024-02-15T09:30:10;100421.63;;;-8.10;77.48
75424;BME280;64005;55.160;36.002;2024-02-15T09:32:37;100416.78;;;-8.14;77.36
75424;BME280;64005;55.160;36.002;2024-02-15T09:35:05;100423.84;;;-8.13;77.30
75424;BME280;64005;55.160;36.002;2024-02-15T09:37:35;100428.03;;;-8.11;77.25
75424;BME280;64005;55.160;36.002;2024-02-15T09:40:03;100433.09;;;-8.08;77.47
75424;BME280;64005;55.160;36.002;2024-02-15T09:42:33;100421.28;;;-8.07;77.35
75424;BME280;64005;55.160;36.002;2024-02-15T09:45:01;100426.50;;;-8.05;77.65
75424;BME280;64005;55.160;36.002;2024-02-15T09:47:34;100427.69;;;-8.08;77.55
75424;BME280;64005;55.160;36.002;2024-02-15T09:50:02;100423.97;;;-8.07;77.37
75424;BME280;64005;55.160;36.002;2024-02-15T09:52:31;100425.28;;;-8.03;77.42
75424;BME280;64005;55.160;36.002;2024-02-15T09:55:02;100429.09;;;-7.97;77.42
75424;BME280;64005;55.160;36.002;2024-02-15T09:57:30;100425.56;;;-7.97;77.34
75424;BME280;64005;55.160;36.002;2024-02-15T09:59:59;100437.31;;;-7.90;77.56
75424;BME280;64005;55.160;36.002;2024-02-15T10:02:26;100442.94;;;-7.92;77.07
75424;BME280;64005;55.160;36.002;2024-02-15T10:04:53;100438.03;;;-7.96;77.35
75424;BME280;64005;55.160;36.002;2024-02-15T10:07:23;100426.22;;;-7.95;77.31
75424;BME280;64005;55.160;36.002;2024-02-15T10:09:50;100433.88;;;-7.99;77.08
75424;BME280;64005;55.160;36.002;2024-02-15T10:12:19;100422.22;;;-7.99;77.03
75424;BME280;64005;55.160;36.002;2024-02-15T10:14:51;100422.06;;;-7.98;77.37
75424;BME280;64005;55.160;36.002;2024-02-15T10:17:19;100435.28;;;-7.88;77.50
75424;BME280;64005;55.160;36.002;2024-02-15T10:20:04;100432.34;;;-7.79;77.69
75424;BME280;64005;55.160;36.002;2024-02-15T10:22:31;100432.63;;;-7.74;77.21
75424;BME280;64005;55.160;36.002;2024-02-15T10:25:19;100429.00;;;-7.66;77.61
75424;BME280;64005;55.160;36.002;2024-02-15T10:27:49;100427.78;;;-7.64;77.34
75424;BME280;64005;55.160;36.002;2024-02-15T10:30:17;100427.78;;;-7.64;77.58
75424;BME280;64005;55.160;36.002;2024-02-15T10:32:46;100426.41;;;-7.59;77.68
75424;BME280;64005;55.160;36.002;2024-02-15T10:35:20;100430.41;;;-7.55;77.99
75424;BME280;64005;55.160;36.002;2024-02-15T10:37:48;100424.09;;;-7.48;77.82
75424;BME280;64005;55.160;36.002;2024-02-15T10:40:20;100424.75;;;-7.46;77.76
75424;BME280;64005;55.160;36.002;2024-02-15T10:42:49;100433.31;;;-7.42;77.61
75424;BME280;64005;55.160;36.002;2024-02-15T10:45:18;100436.28;;;-7.37;77.91
75424;BME280;64005;55.160;36.002;2024-02-15T10:47:46;100439.94;;;-7.30;77.63
75424;BME280;64005;55.160;36.002;2024-02-15T10:50:14;100451.06;;;-7.25;77.47
75424;BME280;64005;55.160;36.002;2024-02-15T10:52:48;100443.56;;;-7.23;77.69
75424;BME280;64005;55.160;36.002;2024-02-15T10:55:25;100442.84;;;-7.32;77.34
75424;BME280;64005;55.160;36.002;2024-02-15T10:58:01;100451.03;;;-7.40;77.57
75424;BME280;64005;55.160;36.002;2024-02-15T11:00:32;100453.63;;;-7.46;77.04
75424;BME280;64005;55.160;36.002;2024-02-15T11:03:04;100455.22;;;-7.52;77.45
75424;BME280;64005;55.160;36.002;2024-02-15T11:05:32;100458.56;;;-7.50;77.50
75424;BME280;64005;55.160;36.002;2024-02-15T11:08:02;100455.66;;;-7.48;77.50
75424;BME280;64005;55.160;36.002;2024-02-15T11:10:30;100460.25;;;-7.49;77.33
75424;BME280;64005;55.160;36.002;2024-02-15T11:13:00;100463.22;;;-7.44;77.45
75424;BME280;64005;55.160;36.002;2024-02-15T11:15:41;100462.03;;;-7.41;77.18
75424;BME280;64005;55.160;36.002;2024-02-15T11:18:11;100458.03;;;-7.45;77.41
75424;BME280;64005;55.160;36.002;2024-02-15T11:20:50;100462.38;;;-7.44;77.14
75424;BME280;64005;55.160;36.002;2024-02-15T11:23:28;100466.97;;;-7.45;77.59
75424;BME280;64005;55.160;36.002;2024-02-15T11:25:56;100467.78;;;-7.44;77.27
75424;BME280;64005;55.160;36.002;2024-02-15T11:28:45;100470.47;;;-7.44;77.35
75424;BME280;64005;55.160;36.002;2024-02-15T11:31:53;100475.25;;;-7.46;76.86
75424;BME280;64005;55.160;36.002;2024-02-15T11:34:43;100471.53;;;-7.45;77.22
75424;BME280;64005;55.160;36.002;2024-02-15T11:40:15;100470.13;;;-7.41;77.24
75424;BME280;64005;55.160;36.002;2024-02-15T11:42:42;100476.19;;;-7.39;77.23
75424;BME280;64005;55.160;36.002;2024-02-15T11:45:12;100482.91;;;-7.35;77.14
75424;BME280;64005;55.160;36.002;2024-02-15T11:47:40;100471.06;;;-7.34;76.87
75424;BME280;64005;55.160;36.002;2024-02-15T11:50:09;100472.59;;;-7.32;76.63
75424;BME280;64005;55.160;36.002;2024-02-15T11:52:38;100475.06;;;-7.30;76.73
75424;BME280;64005;55.160;36.002;2024-02-15T11:55:07;100472.00;;;-7.27;76.75
75424;BME280;64005;55.160;36.002;2024-02-15T11:57:36;100472.19;;;-7.29;76.52
75424;BME280;64005;55.160;36.002;2024-02-15T12:00:06;100476.31;;;-7.33;77.03
75424;BME280;64005;55.160;36.002;2024-02-15T12:03:01;100481.31;;;-7.30;76.73
75424;BME280;64005;55.160;36.002;2024-02-15T12:05:50;100485.72;;;-7.29;77.01
75424;BME280;64005;55.160;36.002;2024-02-15T12:08:35;100484.69;;;-7.28;77.02
75424;BME280;64005;55.160;36.002;2024-02-15T12:11:19;100490.44;;;-7.31;76.79
75424;BME280;64005;55.160;36.002;2024-02-15T12:14:06;100492.03;;;-7.36;76.93
75424;BME280;64005;55.160;36.002;2024-02-15T12:17:03;100483.47;;;-7.40;76.59
75424;BME280;64005;55.160;36.002;2024-02-15T12:19:51;100461.81;;;-7.54;76.91
75424;BME280;64005;55.160;36.002;2024-02-15T12:22:21;100480.19;;;-7.35;76.91
75424;BME280;64005;55.160;36.002;2024-02-15T12:24:58;100489.81;;;-7.33;76.67
75424;BME280;64005;55.160;36.002;2024-02-15T12:27:26;100480.03;;;-7.34;77.24
75424;BME280;64005;55.160;36.002;2024-02-15T12:29:55;100475.63;;;-7.35;77.03
75424;BME280;64005;55.160;36.002;2024-02-15T12:32:22;100472.66;;;-7.40;76.76
75424;BME280;64005;55.160;36.002;2024-02-15T12:34:51;100470.97;;;-7.41;76.93
75424;BME280;64005;55.160;36.002;2024-02-15T12:37:19;100478.41;;;-7.43;76.61
75424;BME280;64005;55.160;36.002;2024-02-15T12:39:48;100477.97;;;-7.46;76.93
75424;BME280;64005;55.160;36.002;2024-02-15T12:42:15;100470.38;;;-7.51;76.65
75424;BME280;64005;55.160;36.002;2024-02-15T12:44:45;100481.56;;;-7.54;76.43
75424;BME280;64005;55.160;36.002;2024-02-15T12:47:22;100479.22;;;-7.57;76.69
75424;BME280;64005;55.160;36.002;2024-02-15T12:49:51;100490.41;;;-7.60;76.36
75424;BME280;64005;55.160;36.002;2024-02-15T12:52:36;100492.44;;;-7.62;76.37
75424;BME280;64005;55.160;36.002;2024-02-15T12:55:12;100485.34;;;-7.63;76.56
75424;BME280;64005;55.160;36.002;2024-02-15T12:57:39;100483.22;;;-7.68;76.15